sensor_id;sensor_type;location;lat;lon;timestamp;temperature;humidity
49821;DHT22;36893;52.520;13.450;2023-04-06T00:07:05;20.80;70.70
49821;DHT22;36893;52.520;13.450;2023-04-06T00:17:06;20.80;70.70
49821;DHT22;36893;52.520;13.450;2023-04-06T00:27:07;20.80;70.60
49821;DHT22;36893;52.520;13.450;2023-04-06T00:37:07;20.80;70.50
49821;DHT22;36893;52.520;13.450;2023-04-06T00:47:08;20.80;70.50
49821;DHT22;36893;52.520;13.450;2023-04-06T00:57:10;20.80;70.50
49821;DHT22;36893;52.520;13.450;2023-04-06T01:07:11;20.70;70.40
49821;DHT22;36893;52.520;13.450;2023-04-06T01:17:12;20.70;70.30
49821;DHT22;36893;52.520;13.450;2023-04-06T01:27:13;20.70;70.40
49821;DHT22;36893;52.520;13.450;2023-04-06T01:37:14;20.70;70.30
49821;DHT22;36893;52.520;13.450;2023-04-06T01:47:14;20.70;70.30
49821;DHT22;36893;52.520;13.450;2023-04-06T01:57:15;20.70;70.30
49821;DHT22;36893;52.520;13.450;2023-04-06T02:07:16;20.70;70.10
49821;DHT22;36893;52.520;13.450;2023-04-06T02:17:16;20.70;70.10
49821;DHT22;36893;52.520;13.450;2023-04-06T02:27:17;20.70;70.10
49821;DHT22;36893;52.520;13.450;2023-04-06T02:37:18;20.70;70.00
49821;DHT22;36893;52.520;13.450;2023-04-06T02:47:18;20.60;70.00
49821;DHT22;36893;52.520;13.450;2023-04-06T02:57:19;20.60;69.90
49821;DHT22;36893;52.520;13.450;2023-04-06T03:07:19;20.60;69.90
49821;DHT22;36893;52.520;13.450;2023-04-06T03:17:20;20.60;69.80
49821;DHT22;36893;52.520;13.450;2023-04-06T03:27:21;20.60;69.80
49821;DHT22;36893;52.520;13.450;2023-04-06T03:37:21;20.60;69.80
49821;DHT22;36893;52.520;13.450;2023-04-06T03:47:22;20.60;69.70
49821;DHT22;36893;52.520;13.450;2023-04-06T03:57:23;20.60;69.60
49821;DHT22;36893;52.520;13.450;2023-04-06T04:07:23;20.60;69.60
49821;DHT22;36893;52.520;13.450;2023-04-06T04:17:24;20.60;69.60
49821;DHT22;36893;52.520;13.450;2023-04-06T04:27:25;20.60;69.50
49821;DHT22;36893;52.520;13.450;2023-04-06T04:37:25;20.60;69.50
49821;DHT22;36893;52.520;13.450;2023-04-06T04:47:26;20.60;69.40
49821;DHT22;36893;52.520;13.450;2023-04-06T04:57:27;20.60;69.40
49821;DHT22;36893;52.520;13.450;2023-04-06T05:07:27;20.60;69.40
49821;DHT22;36893;52.520;13.450;2023-04-06T05:17:28;20.50;69.30
49821;DHT22;36893;52.520;13.450;2023-04-06T05:27:29;20.50;69.30
49821;DHT22;36893;52.520;13.450;2023-04-06T05:37:30;20.50;69.40
49821;DHT22;36893;52.520;13.450;2023-04-06T05:47:30;20.50;69.60
49821;DHT22;36893;52.520;13.450;2023-04-06T05:57:31;20.60;69.90
49821;DHT22;36893;52.520;13.450;2023-04-06T06:07:31;20.60;70.00
49821;DHT22;36893;52.520;13.450;2023-04-06T06:17:32;20.60;70.00
49821;DHT22;36893;52.520;13.450;2023-04-06T06:27:33;20.60;70.00
49821;DHT22;36893;52.520;13.450;2023-04-06T06:37:33;20.60;70.00
49821;DHT22;36893;52.520;13.450;2023-04-06T06:47:34;20.50;70.00
49821;DHT22;36893;52.520;13.450;2023-04-06T06:57:35;20.50;70.00
49821;DHT22;36893;52.520;13.450;2023-04-06T07:07:35;20.50;69.90
49821;DHT22;36893;52.520;13.450;2023-04-06T07:17:36;20.50;69.80
49821;DHT22;36893;52.520;13.450;2023-04-06T07:27:37;20.50;69.80
49821;DHT22;36893;52.520;13.450;2023-04-06T07:37:38;20.50;69.60
49821;DHT22;36893;52.520;13.450;2023-04-06T07:47:39;20.50;69.60
49821;DHT22;36893;52.520;13.450;2023-04-06T07:57:39;20.50;69.60
49821;DHT22;36893;52.520;13.450;2023-04-06T08:07:40;20.50;69.60
49821;DHT22;36893;52.520;13.450;2023-04-06T08:17:41;20.50;69.60
49821;DHT22;36893;52.520;13.450;2023-04-06T08:27:42;20.60;69.60
49821;DHT22;36893;52.520;13.450;2023-04-06T08:37:43;20.60;69.50
49821;DHT22;36893;52.520;13.450;2023-04-06T08:47:43;20.70;69.50
49821;DHT22;36893;52.520;13.450;2023-04-06T08:57:45;20.70;69.40
49821;DHT22;36893;52.520;13.450;2023-04-06T09:07:46;20.70;69.30
49821;DHT22;36893;52.520;13.450;2023-04-06T09:17:47;20.80;69.40
49821;DHT22;36893;52.520;13.450;2023-04-06T09:27:57;20.90;69.40
49821;DHT22;36893;52.520;13.450;2023-04-06T09:38:10;20.90;69.30
49821;DHT22;36893;52.520;13.450;2023-04-06T09:48:11;21.00;69.40
49821;DHT22;36893;52.520;13.450;2023-04-06T09:58:19;21.00;69.30
49821;DHT22;36893;52.520;13.450;2023-04-06T10:08:24;21.10;69.30
49821;DHT22;36893;52.520;13.450;2023-04-06T10:18:25;21.10;69.30
49821;DHT22;36893;52.520;13.450;2023-04-06T10:28:32;21.10;69.20
49821;DHT22;36893;52.520;13.450;2023-04-06T10:38:36;21.20;69.40
49821;DHT22;36893;52.520;13.450;2023-04-06T10:48:39;21.30;69.60
49821;DHT22;36893;52.520;13.450;2023-04-06T10:58:48;21.40;69.90
49821;DHT22;36893;52.520;13.450;2023-04-06T11:08:50;21.50;70.40
49821;DHT22;36893;52.520;13.450;2023-04-06T11:18:56;21.50;70.80
49821;DHT22;36893;52.520;13.450;2023-04-06T11:29:00;21.50;71.10
49821;DHT22;36893;52.520;13.450;2023-04-06T11:39:03;21.60;71.10
49821;DHT22;36893;52.520;13.450;2023-04-06T11:49:04;21.60;71.20
49821;DHT22;36893;52.520;13.450;2023-04-06T11:59:04;21.70;71.20
49821;DHT22;36893;52.520;13.450;2023-04-06T12:09:05;21.70;71.20
49821;DHT22;36893;52.520;13.450;2023-04-06T12:19:06;21.80;71.20
49821;DHT22;36893;52.520;13.450;2023-04-06T12:29:07;21.80;71.20
49821;DHT22;36893;52.520;13.450;2023-04-06T12:39:08;21.80;71.10
49821;DHT22;36893;52.520;13.450;2023-04-06T12:49:08;21.80;71.00
49821;DHT22;36893;52.520;13.450;2023-04-06T12:59:10;21.80;71.80
49821;DHT22;36893;52.520;13.450;2023-04-06T13:09:10;21.90;70.90
49821;DHT22;36893;52.520;13.450;2023-04-06T13:19:12;21.90;70.80
49821;DHT22;36893;52.520;13.450;2023-04-06T13:29:13;21.90;70.70
49821;DHT22;36893;52.520;13.450;2023-04-06T13:39:13;21.90;70.70
49821;DHT22;36893;52.520;13.450;2023-04-06T13:49:14;21.90;70.70
49821;DHT22;36893;52.520;13.450;2023-04-06T13:59:15;21.90;70.70
49821;DHT22;36893;52.520;13.450;2023-04-06T14:09:16;21.80;70.60
49821;DHT22;36893;52.520;13.450;2023-04-06T14:19:17;21.80;70.60
49821;DHT22;36893;52.520;13.450;2023-04-06T14:29:18;21.80;70.50
49821;DHT22;36893;52.520;13.450;2023-04-06T14:39:19;21.80;70.60
49821;DHT22;36893;52.520;13.450;2023-04-06T14:49:20;21.80;70.60
49821;DHT22;36893;52.520;13.450;2023-04-06T14:59:21;21.80;70.70
49821;DHT22;36893;52.520;13.450;2023-04-06T15:09:22;21.80;70.70
49821;DHT22;36893;52.520;13.450;2023-04-06T15:19:22;21.80;70.70
49821;DHT22;36893;52.520;13.450;2023-04-06T15:29:23;21.70;71.50
49821;DHT22;36893;52.520;13.450;2023-04-06T15:39:25;21.70;70.50
49821;DHT22;36893;52.520;13.450;2023-04-06T15:49:26;21.80;70.50
49821;DHT22;36893;52.520;13.450;2023-04-06T15:59:30;21.70;70.10
49821;DHT22;36893;52.520;13.450;2023-04-06T16:09:31;21.70;70.00
49821;DHT22;36893;52.520;13.450;2023-04-06T16:19:31;21.70;69.80
49821;DHT22;36893;52.520;13.450;2023-04-06T16:29:34;21.70;69.50
49821;DHT22;36893;52.520;13.450;2023-04-06T16:39:36;21.60;69.20
49821;DHT22;36893;52.520;13.450;2023-04-06T16:49:36;21.60;69.10
49821;DHT22;36893;52.520;13.450;2023-04-06T16:59:37;21.50;69.00
49821;DHT22;36893;52.520;13.450;2023-04-06T17:09:39;21.60;68.90
49821;DHT22;36893;52.520;13.450;2023-04-06T17:19:40;21.60;68.80
49821;DHT22;36893;52.520;13.450;2023-04-06T17:29:41;21.60;68.60
49821;DHT22;36893;52.520;13.450;2023-04-06T17:39:42;21.60;68.30
49821;DHT22;36893;52.520;13.450;2023-04-06T17:49:43;21.60;68.10
49821;DHT22;36893;52.520;13.450;2023-04-06T17:59:44;21.60;67.80
49821;DHT22;36893;52.520;13.450;2023-04-06T18:09:45;21.60;67.40
49821;DHT22;36893;52.520;13.450;2023-04-06T18:19:46;21.50;67.10
49821;DHT22;36893;52.520;13.450;2023-04-06T18:29:47;21.60;66.90
49821;DHT22;36893;52.520;13.450;2023-04-06T18:39:47;21.50;66.70
49821;DHT22;36893;52.520;13.450;2023-04-06T18:49:48;21.50;66.50
49821;DHT22;36893;52.520;13.450;2023-04-06T18:59:49;21.40;66.40
49821;DHT22;36893;52.520;13.450;2023-04-06T19:09:50;21.40;66.40
49821;DHT22;36893;52.520;13.450;2023-04-06T19:19:50;21.40;66.30
49821;DHT22;36893;52.520;13.450;2023-04-06T19:29:54;21.40;66.30
49821;DHT22;36893;52.520;13.450;2023-04-06T19:39:55;21.40;66.40
49821;DHT22;36893;52.520;13.450;2023-04-06T19:49:56;21.40;66.40
49821;DHT22;36893;52.520;13.450;2023-04-06T19:59:56;21.40;66.40
49821;DHT22;36893;52.520;13.450;2023-04-06T20:09:57;21.40;66.40
49821;DHT22;36893;52.520;13.450;2023-04-06T20:19:58;21.30;66.30
49821;DHT22;36893;52.520;13.450;2023-04-06T20:29:58;21.30;66.30
49821;DHT22;36893;52.520;13.450;2023-04-06T20:39:59;21.40;66.50
49821;DHT22;36893;52.520;13.450;2023-04-06T20:50:01;21.40;66.50
49821;DHT22;36893;52.520;13.450;2023-04-06T21:00:01;21.30;66.40
49821;DHT22;36893;52.520;13.450;2023-04-06T21:10:04;21.30;66.40
49821;DHT22;36893;52.520;13.450;2023-04-06T21:20:06;21.30;66.50
49821;DHT22;36893;52.520;13.450;2023-04-06T21:30:07;21.30;66.60
49821;DHT22;36893;52.520;13.450;2023-04-06T21:40:09;21.30;66.60
49821;DHT22;36893;52.520;13.450;2023-04-06T21:50:10;21.20;66.60
49821;DHT22;36893;52.520;13.450;2023-04-06T22:00:11;21.30;66.60
49821;DHT22;36893;52.520;13.450;2023-04-06T22:10:12;21.20;66.60
49821;DHT22;36893;52.520;13.450;2023-04-06T22:20:12;21.20;66.60
49821;DHT22;36893;52.520;13.450;2023-04-06T22:30:13;21.20;66.60
49821;DHT22;36893;52.520;13.450;2023-04-06T22:40:14;21.20;66.60
49821;DHT22;36893;52.520;13.450;2023-04-06T22:50:14;21.20;66.60
49821;DHT22;36893;52.520;13.450;2023-04-06T23:00:15;21.20;66.60
49821;DHT22;36893;52.520;13.450;2023-04-06T23:10:17;21.20;66.60
49821;DHT22;36893;52.520;13.450;2023-04-06T23:20:19;21.20;66.60
49821;DHT22;36893;52.520;13.450;2023-04-06T23:30:20;21.20;66.60
49821;DHT22;36893;52.520;13.450;2023-04-06T23:40:20;21.20;66.60
49821;DHT22;36893;52.520;13.450;2023-04-06T23:50:24;21.20;66.60
